Time;durP1;ratioP1;P1;durP2;ratioP2;P2;SDS_P1;SDS_P2;PMS_P1;PMS_P2;Temp;Humidity;BMP_temperature;BMP_pressure;BME280_temperature;BME280_humidity;BME280_pressure;Samples;Min_cycle;Max_cycle;Signal;HPM_P1;HPM_P2
2023/01/01 00:00:26;;;;;;;18.00;15.07;;;;;;;14.64;58.80;98153.53;8450137;28;20225;-71
2023/01/01 00:04:31;;;;;;;16.53;13.27;;;;;;;14.67;58.80;98157.69;8451511;28;20295;-71
2023/01/01 00:08:34;;;;;;;14.63;13.00;;;;;;;14.79;58.34;98157.00;8451425;28;20224;-70
2023/01/01 00:12:37;;;;;;;14.63;13.03;;;;;;;14.80;58.60;98160.44;8451156;28;20224;-70
2023/01/01 00:16:40;;;;;;;17.23;14.37;;;;;;;14.72;58.42;98153.06;8451499;28;20522;-70
2023/01/01 00:20:44;;;;;;;16.77;14.90;;;;;;;14.80;58.24;98153.44;8451223;28;20242;-70
2023/01/01 00:24:47;;;;;;;17.70;15.30;;;;;;;14.75;58.13;98154.66;8451049;28;20224;-71
2023/01/01 00:28:49;;;;;;;20.07;17.03;;;;;;;14.83;57.99;98165.47;8450886;28;20240;-71
2023/01/01 00:32:52;;;;;;;21.60;17.10;;;;;;;14.81;57.71;98165.56;8450552;28;20240;-72
2023/01/01 00:36:59;;;;;;;16.97;14.83;;;;;;;14.71;57.79;98147.94;8450813;28;20237;-71
2023/01/01 00:41:02;;;;;;;16.70;14.90;;;;;;;14.57;57.54;98133.94;8450434;28;20231;-70
2023/01/01 00:45:06;;;;;;;17.43;14.43;;;;;;;14.78;57.38;98149.28;8450217;28;20228;-71
2023/01/01 00:49:08;;;;;;;18.07;14.80;;;;;;;14.74;57.03;98140.78;8450427;28;20259;-71
2023/01/01 00:53:13;;;;;;;16.23;14.10;;;;;;;14.71;57.33;98140.13;8450327;28;20554;-71
2023/01/01 00:57:16;;;;;;;18.27;15.87;;;;;;;14.68;57.39;98137.69;8450251;28;20221;-71
2023/01/01 01:01:19;;;;;;;17.97;15.83;;;;;;;14.74;56.97;98140.78;8449986;28;20224;-70
2023/01/01 01:05:21;;;;;;;17.60;15.73;;;;;;;14.78;57.36;98150.09;8449735;28;20220;-71
2023/01/01 01:09:26;;;;;;;17.60;15.57;;;;;;;14.66;57.38;98154.25;8448682;28;20224;-71
2023/01/01 01:13:28;;;;;;;19.33;16.37;;;;;;;14.69;57.45;98155.84;8449431;28;20234;-71
2023/01/01 01:17:31;;;;;;;19.13;16.17;;;;;;;14.68;57.27;98162.00;8449309;28;20437;-70
2023/01/01 01:21:34;;;;;;;18.00;15.83;;;;;;;14.51;57.37;98146.44;8449394;28;20416;-70
2023/01/01 01:25:38;;;;;;;21.17;16.90;;;;;;;14.62;57.51;98154.50;8449153;28;20223;-70
2023/01/01 01:29:41;;;;;;;20.23;17.50;;;;;;;14.59;57.33;98139.91;8449045;28;20246;-71
2023/01/01 01:33:44;;;;;;;24.17;18.67;;;;;;;14.57;57.58;98153.97;8448726;28;20412;-70
2023/01/01 01:37:47;;;;;;;19.87;16.67;;;;;;;14.60;57.38;98145.94;8448636;28;20233;-70
2023/01/01 01:41:51;;;;;;;19.03;17.03;;;;;;;14.61;57.05;98158.91;8448517;28;20235;-71
2023/01/01 01:45:55;;;;;;;18.83;16.20;;;;;;;14.18;57.43;98097.94;8448165;28;20518;-71
2023/01/01 01:50:04;;;;;;;19.47;16.47;;;;;;;14.53;57.33;98148.06;8448243;28;20458;-70
2023/01/01 01:54:10;;;;;;;16.30;14.67;;;;;;;14.65;56.70;98156.94;8448078;28;20535;-71
2023/01/01 01:58:15;;;;;;;16.37;14.67;;;;;;;14.66;56.87;98156.88;8447867;28;20223;-71
2023/01/01 02:02:22;;;;;;;15.90;13.70;;;;;;;14.71;56.55;98151.38;8447821;28;20230;-70
2023/01/01 02:06:25;;;;;;;19.53;13.57;;;;;;;14.70;56.37;98143.63;8447850;28;20297;-71
2023/01/01 02:10:28;;;;;;;16.33;12.90;;;;;;;14.66;56.10;98143.00;8447452;28;20239;-70
2023/01/01 02:14:33;;;;;;;14.27;12.77;;;;;;;14.62;56.49;98144.09;8447457;28;20539;-70
2023/01/01 02:18:41;;;;;;;15.97;13.07;;;;;;;14.71;56.28;98146.16;8446994;28;20235;-70
2023/01/01 02:22:53;;;;;;;13.67;11.87;;;;;;;14.66;55.97;98136.03;8447170;28;20228;-70
2023/01/01 02:27:04;;;;;;;15.10;12.33;;;;;;;14.72;56.13;98137.44;8446854;28;20453;-70
2023/01/01 02:31:10;;;;;;;13.13;11.53;;;;;;;14.51;56.43;98097.78;8447064;28;20228;-70
2023/01/01 02:39:38;;;;;;;11.67;10.47;;;;;;;14.62;56.76;98144.94;8446611;28;20488;-70
2023/01/01 02:43:42;;;;;;;12.87;10.80;;;;;;;14.51;56.37;98146.44;8446508;28;20226;-70
2023/01/01 02:47:46;;;;;;;13.23;11.03;;;;;;;14.63;56.60;98151.00;8447057;28;20235;-70
2023/01/01 02:51:59;;;;;;;13.80;11.23;;;;;;;14.47;56.59;98143.19;8446828;28;20239;-70
2023/01/01 02:56:06;;;;;;;15.77;12.70;;;;;;;14.51;56.38;98152.50;8446157;28;20423;-70
2023/01/01 03:00:26;;;;;;;15.00;12.27;;;;;;;14.42;56.98;98140.84;8446361;28;20234;-70
2023/01/01 03:04:35;;;;;;;13.57;12.00;;;;;;;14.44;57.02;98136.38;8446560;28;20227;-70
2023/01/01 03:08:43;;;;;;;14.43;12.53;;;;;;;14.45;56.64;98145.06;8446511;28;20231;-70
2023/01/01 03:12:53;;;;;;;14.03;12.60;;;;;;;14.49;56.72;98149.16;8446555;28;20232;-70
2023/01/01 03:16:59;;;;;;;15.03;13.00;;;;;;;14.30;56.94;98144.16;8445937;28;20236;-70
2023/01/01 03:21:05;;;;;;;13.23;11.83;;;;;;;14.36;56.95;98145.56;8446094;28;20235;-70
2023/01/01 03:25:10;;;;;;;13.33;11.67;;;;;;;14.31;56.80;98145.00;8446028;28;20242;-70
2023/01/01 03:29:13;;;;;;;13.07;11.17;;;;;;;14.01;56.54;98102.38;8445966;28;20243;-70
2023/01/01 03:33:19;;;;;;;13.00;11.60;;;;;;;14.30;56.79;98136.34;8447450;28;20538;-70
2023/01/01 03:37:25;;;;;;;11.47;10.07;;;;;;;14.38;56.74;98154.16;8452367;28;20231;-70
2023/01/01 03:41:34;;;;;;;10.20;8.87;;;;;;;14.21;56.31;98131.66;8452298;28;20228;-70
2023/01/01 03:45:39;;;;;;;10.03;8.80;;;;;;;14.26;56.57;98146.09;8451698;28;20512;-70
2023/01/01 03:49:43;;;;;;;12.50;9.47;;;;;;;14.34;56.54;98147.44;8451534;28;20527;-70
2023/01/01 03:53:47;;;;;;;13.20;9.03;;;;;;;14.26;56.43;98151.31;8451455;28;20389;-70
2023/01/01 03:57:56;;;;;;;10.57;8.17;;;;;;;14.41;56.39;98173.03;8451195;28;20236;-70
2023/01/01 04:02:00;;;;;;;8.40;7.50;;;;;;;13.80;56.38;98077.50;8450639;28;20542;-70
2023/01/01 04:06:04;;;;;;;9.40;7.63;;;;;;;14.36;56.45;98169.84;8450987;28;20251;-70
2023/01/01 04:10:16;;;;;;;9.47;7.57;;;;;;;14.35;56.57;98188.16;8450634;28;20227;-70
2023/01/01 04:14:28;;;;;;;8.97;7.40;;;;;;;14.39;56.06;98187.94;8450814;28;20315;-70
2023/01/01 04:18:30;;;;;;;9.80;7.77;;;;;;;14.39;56.20;98184.47;8450120;28;20235;-70
2023/01/01 04:22:33;;;;;;;8.80;7.57;;;;;;;14.21;57.01;98184.56;8450533;28;20228;-70
2023/01/01 04:26:37;;;;;;;8.93;7.97;;;;;;;14.16;56.91;98190.97;8450441;28;20260;-70
2023/01/01 04:30:40;;;;;;;8.17;7.20;;;;;;;14.18;56.82;98195.16;8450230;28;20220;-70
2023/01/01 04:34:42;;;;;;;8.30;7.50;;;;;;;14.05;56.68;98181.13;8449659;28;20235;-70
2023/01/01 04:38:44;;;;;;;9.03;7.47;;;;;;;14.14;57.08;98198.03;8449052;28;20235;-70
2023/01/01 04:42:49;;;;;;;8.70;7.90;;;;;;;14.18;56.96;98197.75;8449061;28;20257;-70
2023/01/01 04:46:51;;;;;;;9.37;7.13;;;;;;;13.92;56.82;98161.88;8447460;28;20242;-70
2023/01/01 04:51:03;;;;;;;8.43;6.67;;;;;;;13.99;56.69;98177.13;8448308;28;20326;-70
2023/01/01 04:55:07;;;;;;;8.67;7.43;;;;;;;14.13;56.72;98210.22;8448699;28;20227;-70
2023/01/01 04:59:11;;;;;;;8.17;7.37;;;;;;;14.03;56.88;98211.63;8448973;28;20228;-70
2023/01/01 05:03:14;;;;;;;10.03;8.20;;;;;;;13.90;57.59;98206.25;8447917;28;20429;-70
2023/01/01 05:07:17;;;;;;;7.97;7.13;;;;;;;13.93;57.04;98213.06;8448075;28;20236;-70
2023/01/01 05:11:22;;;;;;;8.23;7.30;;;;;;;13.89;57.15;98208.00;8448246;28;20542;-70
2023/01/01 05:15:27;;;;;;;8.67;6.63;;;;;;;14.00;56.76;98224.81;8448088;28;20240;-70
2023/01/01 05:19:29;;;;;;;7.97;7.17;;;;;;;13.95;57.25;98232.88;8447569;28;20289;-69
2023/01/01 05:23:33;;;;;;;17.90;14.93;;;;;;;13.84;57.04;98220.44;8447694;28;20230;-70
2023/01/01 05:27:35;;;;;;;9.63;7.67;;;;;;;14.00;56.90;98232.63;8448039;28;20234;-70
2023/01/01 05:31:40;;;;;;;8.47;7.10;;;;;;;14.07;56.22;98232.22;8447842;28;20219;-70
2023/01/01 05:35:43;;;;;;;8.40;5.97;;;;;;;13.97;56.56;98223.19;8447361;28;20250;-70
2023/01/01 05:39:46;;;;;;;7.13;5.20;;;;;;;13.99;56.83;98231.81;8447155;28;20237;-70
2023/01/01 05:43:49;;;;;;;7.40;6.10;;;;;;;13.92;56.30;98199.19;8447171;28;20232;-70
2023/01/01 05:47:55;;;;;;;6.13;5.13;;;;;;;14.09;55.99;98224.31;8446488;28;20228;-71
2023/01/01 05:51:58;;;;;;;5.90;5.30;;;;;;;13.99;56.37;98224.00;8446731;28;20327;-70
2023/01/01 05:56:01;;;;;;;5.30;4.53;;;;;;;14.23;55.78;98237.41;8446287;28;20515;-70
2023/01/01 06:00:04;;;;;;;6.63;5.10;;;;;;;14.26;55.24;98241.63;8446385;28;20232;-70
2023/01/01 06:04:08;;;;;;;5.93;4.50;;;;;;;14.25;55.30;98252.97;8446461;28;20230;-70
2023/01/01 06:08:12;;;;;;;6.70;4.67;;;;;;;14.23;55.61;98247.00;8446240;28;20239;-70
2023/01/01 06:12:14;;;;;;;4.93;4.50;;;;;;;14.15;55.46;98241.38;8445953;28;20290;-70
2023/01/01 06:16:17;;;;;;;6.63;4.50;;;;;;;14.20;55.17;98250.63;8446270;28;20220;-70
2023/01/01 06:20:21;;;;;;;6.27;4.80;;;;;;;14.11;55.29;98248.53;8445680;28;20589;-70
2023/01/01 06:24:24;;;;;;;5.77;4.93;;;;;;;14.05;55.45;98254.91;8446095;28;20471;-70
2023/01/01 06:28:27;;;;;;;6.17;5.00;;;;;;;13.69;56.04;98252.50;8445785;28;20291;-70
2023/01/01 06:32:30;;;;;;;6.47;4.77;;;;;;;13.52;56.70;98248.16;8445854;28;20334;-70
2023/01/01 06:36:34;;;;;;;6.30;5.13;;;;;;;13.67;56.16;98246.53;8445361;28;20282;-70
2023/01/01 06:40:37;;;;;;;5.30;4.50;;;;;;;13.78;55.88;98248.53;8444950;28;20337;-70
2023/01/01 06:44:40;;;;;;;6.30;4.80;;;;;;;13.96;55.59;98270.19;8445328;28;20545;-70
2023/01/01 06:48:43;;;;;;;6.00;4.67;;;;;;;13.96;55.43;98278.00;8445317;28;20438;-70
2023/01/01 06:52:48;;;;;;;6.20;5.17;;;;;;;14.03;55.28;98281.94;8445190;28;20231;-70
2023/01/01 06:56:51;;;;;;;5.83;4.87;;;;;;;13.89;55.70;98285.28;8445071;28;20231;-70
2023/01/01 07:00:53;;;;;;;5.80;5.20;;;;;;;13.91;55.43;98291.22;8444063;28;20227;-71
2023/01/01 07:04:56;;;;;;;6.87;5.30;;;;;;;13.57;55.91;98290.38;8445018;28;20394;-70
2023/01/01 07:09:01;;;;;;;6.23;5.13;;;;;;;13.40;56.93;98304.28;8447491;28;20234;-70
2023/01/01 07:13:04;;;;;;;7.03;4.67;;;;;;;12.91;58.33;98304.06;8451731;28;20531;-70
2023/01/01 07:17:07;;;;;;;6.67;4.90;;;;;;;13.25;57.94;98316.25;8450744;28;20233;-70
2023/01/01 07:21:26;;;;;;;6.63;4.80;;;;;;;13.48;56.40;98316.88;8451232;28;20265;-70
2023/01/01 07:25:33;;;;;;;5.07;4.47;;;;;;;13.08;58.26;98319.69;8451342;28;20235;-70
2023/01/01 07:29:35;;;;;;;4.43;4.00;;;;;;;13.15;57.47;98330.59;8451222;28;20234;-70
2023/01/01 07:33:38;;;;;;;6.27;4.43;;;;;;;13.34;57.97;98340.13;8451092;28;20222;-70
2023/01/01 07:37:41;;;;;;;5.67;4.87;;;;;;;13.53;56.59;98320.09;8450719;28;20465;-70
2023/01/01 07:41:46;;;;;;;6.77;4.70;;;;;;;13.62;56.35;98297.97;8451052;28;20247;-70
2023/01/01 07:45:49;;;;;;;6.07;4.77;;;;;;;13.68;56.60;98340.13;8450931;28;20234;-70
2023/01/01 07:49:52;;;;;;;5.97;4.53;;;;;;;13.60;56.56;98334.47;8450710;28;20239;-70
2023/01/01 07:53:55;;;;;;;8.47;5.50;;;;;;;13.46;57.38;98347.31;8450635;28;20224;-70
2023/01/01 07:58:07;;;;;;;13.90;10.83;;;;;;;13.78;56.65;98331.84;8450415;28;20255;-70
2023/01/01 08:02:11;;;;;;;7.33;5.13;;;;;;;15.02;53.26;98339.94;8450905;28;20321;-70
2023/01/01 08:06:14;;;;;;;6.17;5.20;;;;;;;16.39;49.85;98360.63;8450703;28;20330;-70
2023/01/01 08:10:18;;;;;;;7.57;5.73;;;;;;;17.46;47.04;98368.69;8450429;28;20250;-70
2023/01/01 08:14:23;;;;;;;7.20;6.27;;;;;;;17.71;45.97;98369.66;8450240;28;20495;-70
2023/01/01 08:18:26;;;;;;;7.97;6.03;;;;;;;16.96;47.35;98378.88;8449642;28;20482;-70
2023/01/01 08:22:29;;;;;;;10.07;6.37;;;;;;;15.98;50.52;98384.91;8449778;28;20553;-70
2023/01/01 08:26:33;;;;;;;7.90;6.10;;;;;;;15.09;52.64;98362.16;8449684;28;20551;-70
2023/01/01 08:30:37;;;;;;;8.03;6.77;;;;;;;15.28;52.72;98388.03;8449512;28;20279;-70
2023/01/01 08:34:40;;;;;;;7.07;6.37;;;;;;;15.05;53.36;98387.56;8449159;28;20234;-70
2023/01/01 08:38:43;;;;;;;8.00;6.40;;;;;;;15.22;53.08;98402.28;8449241;28;20237;-70
2023/01/01 08:42:46;;;;;;;8.63;6.17;;;;;;;15.19;52.88;98410.28;8449425;28;20245;-70
2023/01/01 08:46:53;;;;;;;7.73;6.70;;;;;;;14.98;53.35;98420.16;8449490;28;20236;-70
2023/01/01 08:50:59;;;;;;;6.97;6.27;;;;;;;14.88;53.82;98420.75;8448221;28;20450;-69
2023/01/01 08:55:01;;;;;;;7.57;6.77;;;;;;;15.01;53.73;98424.34;8448267;28;20296;-70
2023/01/01 08:59:05;;;;;;;8.73;6.80;;;;;;;14.90;54.27;98417.09;8448472;28;20353;-70
2023/01/01 09:03:09;;;;;;;8.60;6.83;;;;;;;14.95;54.29;98417.72;8448420;28;20241;-71
2023/01/01 09:07:12;;;;;;;9.67;7.50;;;;;;;14.94;54.27;98431.66;8448246;28;20347;-71
2023/01/01 09:11:21;;;;;;;10.27;7.00;;;;;;;15.09;53.92;98429.97;8448047;28;20258;-71
2023/01/01 09:15:24;;;;;;;8.97;7.00;;;;;;;15.11;54.06;98437.72;8447960;28;20231;-71
2023/01/01 09:19:28;;;;;;;7.47;6.17;;;;;;;15.10;53.66;98443.84;8447558;28;20249;-70
2023/01/01 09:23:32;;;;;;;8.47;6.90;;;;;;;15.23;53.43;98447.47;8447496;28;20233;-70
2023/01/01 09:27:34;;;;;;;8.13;7.00;;;;;;;15.27;53.35;98451.63;8447312;28;20412;-71
2023/01/01 09:31:37;;;;;;;7.97;7.17;;;;;;;15.39;53.32;98456.13;8446789;28;20228;-70
2023/01/01 09:35:43;;;;;;;7.03;6.13;;;;;;;15.55;53.04;98453.47;8447320;28;20227;-70
2023/01/01 09:39:46;;;;;;;7.70;6.60;;;;;;;15.53;52.91;98457.13;8446915;28;20227;-71
2023/01/01 09:43:54;;;;;;;6.57;5.87;;;;;;;15.53;52.50;98449.28;8446807;28;20242;-71
2023/01/01 09:48:00;;;;;;;8.47;6.47;;;;;;;15.70;52.38;98451.78;8448108;28;20251;-70
2023/01/01 09:52:04;;;;;;;6.03;5.43;;;;;;;15.61;52.25;98445.31;8448271;28;20498;-71
2023/01/01 09:56:13;;;;;;;8.17;5.83;;;;;;;15.45;52.49;98429.69;8447870;28;20554;-70
2023/01/01 10:00:17;;;;;;;6.50;5.60;;;;;;;15.55;52.55;98435.22;8447901;28;20512;-71
2023/01/01 10:04:33;;;;;;;7.73;6.07;;;;;;;15.61;52.01;98439.25;8447664;28;20227;-71
2023/01/01 10:08:59;;;;;;;6.40;5.73;;;;;;;15.62;52.23;98436.53;8447477;28;20542;-70
2023/01/01 10:13:10;;;;;;;6.47;4.70;;;;;;;15.40;52.12;98403.03;8447080;28;20505;-70
2023/01/01 10:17:17;;;;;;;8.07;5.43;;;;;;;15.57;51.99;98428.16;8446907;28;20223;-70
2023/01/01 10:21:23;;;;;;;9.23;4.97;;;;;;;15.58;52.32;98437.66;8447144;28;20453;-70
2023/01/01 10:25:28;;;;;;;5.23;4.63;;;;;;;15.64;52.33;98429.47;8446881;28;20393;-71
2023/01/01 10:29:37;;;;;;;5.20;4.70;;;;;;;15.69;52.34;98433.56;8446842;28;20252;-70
2023/01/01 10:33:40;;;;;;;6.17;5.33;;;;;;;15.50;52.16;98395.50;8447142;28;20226;-71
2023/01/01 10:37:43;;;;;;;5.20;4.70;;;;;;;15.86;52.35;98436.09;8446987;28;20260;-70
2023/01/01 10:41:47;;;;;;;6.17;5.20;;;;;;;15.84;51.71;98430.13;8446222;28;20233;-70
2023/01/01 10:45:53;;;;;;;7.00;5.20;;;;;;;15.79;51.84;98430.38;8446536;28;20230;-70
2023/01/01 10:49:58;;;;;;;6.93;4.70;;;;;;;15.95;51.26;98434.72;8446053;28;20236;-70
2023/01/01 10:54:01;;;;;;;5.47;4.97;;;;;;;16.00;51.52;98445.72;8446423;28;20230;-70
2023/01/01 10:58:25;;;;;;;5.73;4.90;;;;;;;16.11;50.48;98442.50;8446407;28;20230;-71
2023/01/01 11:02:29;;;;;;;5.57;4.20;;;;;;;15.88;51.40;98436.00;8446379;28;20231;-70
2023/01/01 11:06:34;;;;;;;4.77;4.27;;;;;;;16.03;50.93;98442.97;8446146;28;20442;-70
2023/01/01 11:10:37;;;;;;;5.13;3.93;;;;;;;15.98;50.89;98437.16;8446258;28;20453;-70
2023/01/01 11:14:43;;;;;;;4.87;4.37;;;;;;;16.14;50.91;98435.28;8446251;28;20227;-70
2023/01/01 11:18:46;;;;;;;5.93;4.53;;;;;;;15.99;50.94;98421.41;8446249;28;20412;-70
2023/01/01 11:22:51;;;;;;;5.20;4.50;;;;;;;16.00;50.68;98414.38;8446018;28;20238;-70
2023/01/01 11:27:12;;;;;;;5.40;4.63;;;;;;;16.22;50.52;98421.75;8445379;28;20234;-71
2023/01/01 11:31:19;;;;;;;5.80;4.00;;;;;;;16.27;50.11;98411.88;8446067;28;20412;-70
2023/01/01 11:35:23;;;;;;;6.50;4.40;;;;;;;16.27;50.41;98405.81;8445680;28;20269;-70
2023/01/01 11:39:26;;;;;;;5.70;4.20;;;;;;;16.21;50.73;98405.25;8444899;28;20582;-70
2023/01/01 11:43:35;;;;;;;6.47;4.57;;;;;;;16.38;50.17;98401.63;8445511;28;20229;-70
2023/01/01 11:47:41;;;;;;;3.80;3.40;;;;;;;16.45;49.98;98396.88;8445768;28;20228;-70
2023/01/01 11:51:43;;;;;;;5.77;4.23;;;;;;;16.39;49.61;98395.47;8445602;28;20237;-70
2023/01/01 11:55:49;;;;;;;4.60;4.13;;;;;;;16.44;49.96;98400.41;8449227;28;20403;-70
2023/01/01 11:59:57;;;;;;;6.20;3.80;;;;;;;16.03;50.51;98377.66;8451441;28;20226;-71
2023/01/01 12:04:05;;;;;;;6.53;4.30;;;;;;;16.22;50.39;98386.03;8451805;28;20387;-70
2023/01/01 12:08:10;;;;;;;6.03;3.87;;;;;;;16.17;50.51;98361.13;8451558;28;20287;-70
2023/01/01 12:12:17;;;;;;;9.50;4.33;;;;;;;16.10;50.37;98371.09;8451158;28;20476;-70
2023/01/01 12:16:22;;;;;;;5.37;4.37;;;;;;;16.27;50.63;98377.91;8451439;28;20238;-70
2023/01/01 12:20:28;;;;;;;3.97;3.57;;;;;;;16.46;50.31;98375.00;8450981;28;20234;-70
2023/01/01 12:24:33;;;;;;;4.77;3.33;;;;;;;16.50;50.12;98373.88;8451051;28;20538;-70
2023/01/01 12:28:40;;;;;;;3.70;3.40;;;;;;;16.45;50.46;98372.47;8450769;28;20230;-70
2023/01/01 12:33:05;;;;;;;5.97;3.70;;;;;;;16.55;50.26;98365.78;8450912;28;20529;-70
2023/01/01 12:37:17;;;;;;;4.97;3.43;;;;;;;16.64;49.74;98373.03;8450428;28;20225;-70
2023/01/01 12:41:26;;;;;;;6.47;3.97;;;;;;;16.51;50.16;98336.34;8450135;28;20396;-70
2023/01/01 12:45:56;;;;;;;7.33;4.00;;;;;;;16.66;50.23;98360.72;8450705;28;20238;-70
2023/01/01 12:50:09;;;;;;;5.40;3.80;;;;;;;16.63;50.18;98355.66;8449538;28;20425;-70
2023/01/01 12:54:43;;;;;;;10.17;4.13;;;;;;;16.33;50.90;98364.47;8449971;28;20287;-70
2023/01/01 12:58:50;;;;;;;5.83;3.90;;;;;;;16.26;50.52;98362.31;8449852;28;20418;-71
2023/01/01 13:02:57;;;;;;;5.80;3.43;;;;;;;16.15;50.76;98319.41;8449188;28;20522;-70
2023/01/01 13:07:04;;;;;;;4.93;3.20;;;;;;;16.37;50.89;98355.53;8448430;28;20587;-70
2023/01/01 13:11:09;;;;;;;7.80;4.93;;;;;;;15.97;52.17;98344.03;8449625;28;20342;-71
2023/01/01 13:15:47;;;;;;;5.37;4.20;;;;;;;15.86;52.57;98347.31;8448251;28;20266;-71
2023/01/01 13:19:56;;;;;;;3.97;3.50;;;;;;;16.23;52.08;98351.13;8448794;28;20239;-70
2023/01/01 13:24:03;;;;;;;6.70;4.00;;;;;;;16.37;51.69;98341.59;8448396;28;20249;-70
2023/01/01 13:28:13;;;;;;;5.87;3.97;;;;;;;16.22;52.28;98344.25;8448466;28;20223;-70
2023/01/01 13:32:16;;;;;;;8.57;4.10;;;;;;;16.26;52.37;98336.19;8448521;28;20226;-70
2023/01/01 13:36:31;;;;;;;7.83;5.20;;;;;;;16.73;61.43;98335.81;8448610;28;20393;-69
2023/01/01 13:40:51;;;;;;;7.37;4.73;;;;;;;16.60;52.67;98335.78;8448155;28;20238;-69
2023/01/01 13:44:56;;;;;;;4.60;3.60;;;;;;;16.73;52.40;98333.22;8448016;28;20285;-70
2023/01/01 13:49:18;;;;;;;3.90;3.43;;;;;;;16.59;51.99;98333.25;8448195;28;20238;-70
2023/01/01 13:53:36;;;;;;;5.07;3.40;;;;;;;16.44;52.15;98316.75;8447710;28;20510;-69
2023/01/01 13:58:14;;;;;;;4.67;3.53;;;;;;;16.74;51.14;98337.53;8447838;28;20353;-70
2023/01/01 14:02:22;;;;;;;6.70;3.40;;;;;;;16.86;50.73;98335.91;8407287;28;20253;-70
2023/01/01 14:06:29;;;;;;;6.10;3.70;;;;;;;16.87;50.56;98323.66;8447871;28;20533;-70
2023/01/01 14:10:33;;;;;;;5.20;3.20;;;;;;;16.90;50.96;98333.94;8447388;28;20241;-70
2023/01/01 14:14:37;;;;;;;5.50;3.33;;;;;;;16.73;50.32;98325.38;8447140;28;20224;-70
2023/01/01 14:18:42;;;;;;;4.67;3.20;;;;;;;16.86;50.23;98333.31;8447129;28;20561;-71
2023/01/01 14:22:45;;;;;;;3.70;3.10;;;;;;;16.67;50.18;98319.69;8446893;28;20236;-70
2023/01/01 14:26:48;;;;;;;5.60;3.60;;;;;;;16.79;50.18;98347.66;8447062;28;20237;-71
2023/01/01 14:30:52;;;;;;;5.10;2.83;;;;;;;16.72;50.46;98349.84;8446939;28;20227;-70
2023/01/01 14:35:02;;;;;;;3.87;2.90;;;;;;;16.70;49.95;98345.66;8446403;28;20239;-71
2023/01/01 14:39:23;;;;;;;4.20;2.77;;;;;;;16.58;49.93;98342.88;8446736;28;20392;-71
2023/01/01 14:43:30;;;;;;;4.20;3.80;;;;;;;16.49;50.49;98340.84;8446425;28;20230;-71
2023/01/01 14:47:37;;;;;;;8.10;5.10;;;;;;;16.10;51.46;98344.97;8446553;28;20237;-70
2023/01/01 14:51:45;;;;;;;5.33;4.00;;;;;;;16.22;51.28;98323.34;8446546;28;20535;-71
2023/01/01 14:55:48;;;;;;;5.67;4.00;;;;;;;16.18;51.47;98352.34;8446640;28;20557;-70
2023/01/01 14:59:53;;;;;;;5.93;3.60;;;;;;;16.22;51.73;98349.47;8446078;28;20229;-70
2023/01/01 15:04:04;;;;;;;3.77;3.37;;;;;;;16.24;51.71;98349.38;8445501;28;20245;-71
2023/01/01 15:08:24;;;;;;;4.47;3.50;;;;;;;15.81;52.57;98331.91;8445216;28;20227;-70
2023/01/01 15:12:28;;;;;;;6.23;3.80;;;;;;;16.03;52.61;98354.97;8446136;28;20432;-70
2023/01/01 15:16:30;;;;;;;5.00;3.97;;;;;;;16.00;52.37;98359.53;8445878;28;20233;-71
2023/01/01 15:20:42;;;;;;;6.10;4.27;;;;;;;15.91;53.03;98360.09;8445880;28;20457;-70
2023/01/01 15:24:46;;;;;;;7.00;4.10;;;;;;;15.95;52.75;98362.41;8445191;28;20233;-71
2023/01/01 15:28:49;;;;;;;7.60;3.60;;;;;;;15.91;52.63;98358.31;8445896;28;20493;-70
2023/01/01 15:32:52;;;;;;;8.87;4.57;;;;;;;15.91;52.63;98360.91;8452248;28;20237;-71
2023/01/01 15:36:56;;;;;;;8.30;4.43;;;;;;;15.66;52.91;98335.41;8451381;28;20218;-71
2023/01/01 15:41:01;;;;;;;6.97;4.50;;;;;;;15.73;52.95;98355.03;8452067;28;20584;-71
2023/01/01 15:45:23;;;;;;;5.97;4.60;;;;;;;15.87;52.80;98346.38;8442721;28;20222;-69
2023/01/01 15:49:27;;;;;;;4.63;3.97;;;;;;;15.85;53.06;98350.00;8451834;28;20516;-69
2023/01/01 15:53:31;;;;;;;4.50;3.80;;;;;;;15.68;52.88;98350.97;8451584;28;20229;-69
2023/01/01 15:57:36;;;;;;;5.87;4.57;;;;;;;15.51;53.69;98350.19;8451248;28;20230;-71
2023/01/01 16:01:41;;;;;;;7.67;4.43;;;;;;;15.63;53.01;98336.44;8451564;28;20533;-69
2023/01/01 16:05:46;;;;;;;7.37;4.60;;;;;;;15.41;53.42;98351.66;8451782;28;20373;-69
2023/01/01 16:09:50;;;;;;;6.10;4.20;;;;;;;15.56;53.67;98358.59;8451375;28;20229;-68
2023/01/01 16:14:01;;;;;;;14.37;5.10;;;;;;;15.78;58.56;98362.56;8450912;28;20234;-69
2023/01/01 16:18:04;;;;;;;7.87;4.80;;;;;;;15.70;53.48;98355.16;8451177;28;20239;-69
2023/01/01 16:22:07;;;;;;;9.20;4.77;;;;;;;15.70;53.17;98344.72;8450839;28;20245;-69
2023/01/01 16:26:10;;;;;;;5.40;4.37;;;;;;;15.76;53.56;98349.63;8450965;28;20409;-69
2023/01/01 16:30:17;;;;;;;4.77;4.37;;;;;;;15.76;53.02;98354.00;8450896;28;20241;-69
2023/01/01 16:34:20;;;;;;;7.73;5.70;;;;;;;15.76;53.43;98352.25;8450763;28;20233;-69
2023/01/01 16:38:23;;;;;;;7.07;5.30;;;;;;;15.72;53.79;98342.84;8450312;28;20226;-69
2023/01/01 16:42:26;;;;;;;7.17;4.80;;;;;;;15.77;53.36;98329.56;8450128;28;20230;-69
2023/01/01 16:46:32;;;;;;;6.50;4.90;;;;;;;15.73;53.43;98336.75;8450461;28;20427;-69
2023/01/01 16:50:35;;;;;;;10.93;6.17;;;;;;;15.72;53.78;98326.38;8450310;28;20224;-69
2023/01/01 16:54:39;;;;;;;8.90;6.57;;;;;;;15.69;54.02;98330.00;8450271;28;20225;-70
2023/01/01 16:58:42;;;;;;;10.70;7.20;;;;;;;15.59;54.01;98323.63;8450052;28;20226;-69
2023/01/01 17:03:01;;;;;;;10.60;8.00;;;;;;;15.53;54.29;98317.00;8449334;28;20234;-69
2023/01/01 17:07:04;;;;;;;12.70;9.77;;;;;;;15.41;54.74;98312.50;8449595;28;20233;-69
2023/01/01 17:11:09;;;;;;;12.40;9.20;;;;;;;15.49;54.67;98310.28;8449550;28;20231;-69
2023/01/01 17:15:12;;;;;;;10.93;9.60;;;;;;;15.35;55.28;98308.50;8449506;28;20250;-69
2023/01/01 17:19:16;;;;;;;12.90;10.37;;;;;;;15.48;54.63;98318.19;8449013;28;20404;-69
2023/01/01 17:23:19;;;;;;;15.67;12.63;;;;;;;15.28;54.83;98311.56;8448701;28;20236;-69
2023/01/01 17:27:22;;;;;;;13.77;12.13;;;;;;;15.19;55.27;98315.50;8449495;28;20536;-69
2023/01/01 17:31:25;;;;;;;15.20;12.13;;;;;;;15.16;54.89;98302.66;8449070;28;20596;-69
2023/01/01 17:35:30;;;;;;;15.37;12.50;;;;;;;15.13;55.21;98313.28;8448550;28;20339;-68
2023/01/01 17:39:35;;;;;;;14.93;12.10;;;;;;;15.10;55.77;98316.91;8448228;28;20225;-69
2023/01/01 17:43:39;;;;;;;16.63;13.07;;;;;;;14.83;55.91;98301.91;8448618;28;20234;-69
2023/01/01 17:47:41;;;;;;;15.33;12.50;;;;;;;14.84;55.96;98303.56;8448615;28;20523;-69
2023/01/01 17:51:46;;;;;;;15.93;11.73;;;;;;;14.73;55.92;98318.13;8447838;28;20528;-69
2023/01/01 17:55:49;;;;;;;16.23;11.60;;;;;;;14.65;56.32;98322.00;8448138;28;20526;-69
2023/01/01 17:59:57;;;;;;;12.23;10.83;;;;;;;14.59;55.96;98304.09;8448215;28;20398;-69
2023/01/01 18:04:02;;;;;;;15.20;10.97;;;;;;;14.68;55.99;98314.94;8447298;28;20228;-68
2023/01/01 18:08:06;;;;;;;12.53;10.13;;;;;;;14.63;55.95;98315.19;8447857;28;20228;-70
2023/01/01 18:12:09;;;;;;;18.33;11.80;;;;;;;14.71;55.49;98312.16;8447752;28;20424;-68
2023/01/01 18:16:12;;;;;;;14.60;9.83;;;;;;;14.70;55.68;98307.84;8447865;28;20232;-70
2023/01/01 18:20:16;;;;;;;11.50;7.70;;;;;;;14.48;55.72;98309.84;8447548;28;20300;-70
2023/01/01 18:24:20;;;;;;;11.13;8.60;;;;;;;14.38;56.18;98305.25;8447806;28;20232;-72
2023/01/01 18:28:23;;;;;;;13.63;9.20;;;;;;;14.34;56.91;98295.94;8447323;28;20425;-70
2023/01/01 18:32:26;;;;;;;13.07;9.43;;;;;;;14.26;56.73;98296.34;8447260;28;20227;-70
2023/01/01 18:36:30;;;;;;;16.27;11.27;;;;;;;14.20;56.94;98292.31;8447220;28;20526;-71
2023/01/01 18:40:36;;;;;;;12.73;11.20;;;;;;;14.17;56.37;98274.22;8446869;28;20526;-69
2023/01/01 18:44:40;;;;;;;13.07;11.17;;;;;;;14.12;56.88;98286.66;8446464;28;20234;-71
2023/01/01 18:48:43;;;;;;;14.07;10.60;;;;;;;14.09;56.74;98281.63;8446762;28;20255;-70
2023/01/01 18:52:46;;;;;;;12.33;10.40;;;;;;;14.02;56.78;98290.69;8446325;28;20223;-70
2023/01/01 18:56:59;;;;;;;16.63;11.10;;;;;;;14.10;56.90;98283.28;8446792;28;20227;-71
2023/01/01 19:01:02;;;;;;;14.70;11.97;;;;;;;13.98;56.86;98278.75;8446150;28;20248;-70
2023/01/01 19:05:16;;;;;;;12.23;10.60;;;;;;;14.01;56.80;98276.81;8445359;28;20287;-71
2023/01/01 19:09:22;;;;;;;20.57;15.20;;;;;;;13.66;58.14;98278.66;8446118;28;20238;-73
2023/01/01 19:13:29;;;;;;;18.40;15.10;;;;;;;13.96;57.06;98268.41;8446335;28;20223;-73